createdAt,value
2023-02-24T00:01:24.194Z,99674.00
2023-02-24T00:03:52.755Z,99674.00
2023-02-24T00:06:20.086Z,99667.00
2023-02-24T00:08:48.062Z,99657.00
2023-02-24T00:11:18.872Z,99670.00
2023-02-24T00:13:46.909Z,99672.00
2023-02-24T00:16:16.998Z,99667.00
2023-02-24T00:18:45.014Z,99665.00
2023-02-24T00:21:14.927Z,99671.00
2023-02-24T00:23:43.559Z,99660.00
2023-02-24T00:26:13.526Z,99670.00
2023-02-24T00:28:42.192Z,99658.00
2023-02-24T00:31:13.504Z,99659.00
2023-02-24T00:33:41.829Z,99664.00
2023-02-24T00:36:10.897Z,99662.00
2023-02-24T00:38:44.591Z,99656.00
2023-02-24T00:41:14.740Z,99657.00
2023-02-24T00:43:46.103Z,99658.00
2023-02-24T00:46:16.575Z,99659.00
2023-02-24T00:48:45.597Z,99654.00
2023-02-24T00:51:15.981Z,99648.00
2023-02-24T00:53:44.586Z,99647.00
2023-02-24T00:56:12.923Z,99644.00
2023-02-24T00:58:40.472Z,99640.00
2023-02-24T01:01:13.680Z,99647.00
2023-02-24T01:03:41.772Z,99644.00
2023-02-24T01:06:09.320Z,99634.00
2023-02-24T01:08:41.988Z,99636.00
2023-02-24T01:11:27.792Z,99636.00
2023-02-24T01:13:55.797Z,99635.00
2023-02-24T01:16:23.356Z,99626.00
2023-02-24T01:18:51.238Z,99633.00
2023-02-24T01:21:20.069Z,99629.00
2023-02-24T01:23:49.168Z,99623.00
2023-02-24T01:26:17.560Z,99612.00
2023-02-24T01:28:45.789Z,99616.00
2023-02-24T01:31:16.231Z,99607.00
2023-02-24T01:33:45.147Z,99600.00
2023-02-24T01:36:14.559Z,99610.00
2023-02-24T01:38:42.609Z,99608.00
2023-02-24T01:41:11.017Z,99605.00
2023-02-24T01:44:01.284Z,99602.00
2023-02-24T01:46:30.448Z,99602.00
2023-02-24T01:49:02.155Z,99605.00
2023-02-24T01:51:36.026Z,99593.00
2023-02-24T01:54:05.781Z,99586.00
2023-02-24T01:56:33.337Z,99590.00
2023-02-24T01:59:02.840Z,99591.00
2023-02-24T02:01:39.553Z,99581.00
2023-02-24T02:04:16.609Z,99579.00
2023-02-24T02:06:45.031Z,99579.00
2023-02-24T02:09:14.592Z,99581.00
2023-02-24T02:11:41.987Z,99570.00
2023-02-24T02:14:10.272Z,99569.00
2023-02-24T02:17:04.851Z,99570.00
2023-02-24T02:19:55.264Z,99570.00
2023-02-24T02:22:59.966Z,99555.00
2023-02-24T02:25:38.725Z,99569.00
2023-02-24T02:28:31.007Z,99569.00
2023-02-24T02:31:30.213Z,99564.00
2023-02-24T02:34:31.005Z,99565.00
2023-02-24T02:37:05.131Z,99557.00
2023-02-24T02:39:40.144Z,99568.00
2023-02-24T02:42:15.449Z,99569.00
2023-02-24T02:44:55.129Z,99557.00
2023-02-24T02:47:28.645Z,99557.00
2023-02-24T02:50:01.428Z,99556.00
2023-02-24T02:52:35.776Z,99553.00
2023-02-24T02:55:10.077Z,99556.00
2023-02-24T02:57:39.751Z,99552.00
2023-02-24T03:00:12.715Z,99557.00
2023-02-24T03:02:43.759Z,99552.00
2023-02-24T03:05:16.767Z,99555.00
2023-02-24T03:07:48.761Z,99554.00
2023-02-24T03:10:21.704Z,99551.00
2023-02-24T03:12:52.810Z,99551.00
2023-02-24T03:15:23.322Z,99549.00
2023-02-24T03:17:55.903Z,99551.00
2023-02-24T03:20:29.263Z,99552.00
2023-02-24T03:23:03.838Z,99556.00
2023-02-24T03:25:39.344Z,99565.00
2023-02-24T03:28:15.568Z,99562.00
2023-02-24T03:30:45.929Z,99537.00
2023-02-24T03:33:19.622Z,99541.00
2023-02-24T03:35:50.721Z,99544.00
2023-02-24T03:38:19.280Z,99543.00
2023-02-24T03:40:47.402Z,99540.00
2023-02-24T03:43:18.929Z,99545.00
2023-02-24T03:45:46.447Z,99540.00
2023-02-24T03:48:14.164Z,99543.00
2023-02-24T03:50:42.579Z,99540.00
2023-02-24T03:53:30.270Z,99532.00
2023-02-24T03:56:10.255Z,99546.00
2023-02-24T03:58:51.348Z,99531.00
2023-02-24T04:01:27.027Z,99530.00
2023-02-24T04:04:01.311Z,99525.00
2023-02-24T04:06:37.610Z,99523.00
2023-02-24T04:09:12.526Z,99523.00
2023-02-24T04:11:45.833Z,99519.00
2023-02-24T04:14:18.959Z,99514.00
2023-02-24T04:16:53.425Z,99515.00
2023-02-24T04:19:23.438Z,99514.00
2023-02-24T04:21:51.692Z,99515.00
2023-02-24T04:24:23.350Z,99504.00
2023-02-24T04:26:51.673Z,99507.00
2023-02-24T04:29:23.310Z,99496.00
2023-02-24T04:31:54.204Z,99494.00
2023-02-24T04:34:21.604Z,99490.00
2023-02-24T04:36:49.648Z,99494.00
2023-02-24T04:39:19.308Z,99487.00
2023-02-24T04:41:48.661Z,99490.00
2023-02-24T04:44:17.342Z,99476.00
2023-02-24T04:46:44.730Z,99479.00
2023-02-24T04:49:12.912Z,99475.00
2023-02-24T04:51:41.741Z,99476.00
2023-02-24T04:54:09.316Z,99480.00
2023-02-24T04:56:40.025Z,99476.00
2023-02-24T04:59:09.529Z,99476.00
2023-02-24T05:01:39.214Z,99474.00
2023-02-24T05:04:06.646Z,99472.00
2023-02-24T05:06:34.390Z,99466.00
2023-02-24T05:09:13.313Z,99468.00
2023-02-24T05:11:42.090Z,99467.00
2023-02-24T05:14:13.873Z,99466.00
2023-02-24T05:16:42.685Z,99462.00
2023-02-24T05:19:25.000Z,99462.00
2023-02-24T05:21:52.541Z,99465.00
2023-02-24T05:24:19.879Z,99467.00
2023-02-24T05:26:48.511Z,99468.00
2023-02-24T05:29:15.768Z,99476.00
2023-02-24T05:31:43.371Z,99471.00
2023-02-24T05:34:16.335Z,99480.00
2023-02-24T05:36:45.189Z,99470.00
2023-02-24T05:39:18.495Z,99470.00
2023-02-24T05:41:48.207Z,99468.00
2023-02-24T05:44:21.844Z,99466.00
2023-02-24T05:46:52.333Z,99474.00
2023-02-24T05:49:22.579Z,99475.00
2023-02-24T05:51:54.063Z,99467.00
2023-02-24T05:54:23.236Z,99469.00
2023-02-24T05:56:51.282Z,99467.00
2023-02-24T05:59:20.709Z,99472.00
2023-02-24T06:01:49.146Z,99467.00
2023-02-24T06:04:23.145Z,99462.00
2023-02-24T06:06:51.719Z,99472.00
2023-02-24T06:09:22.421Z,99461.00
2023-02-24T06:11:50.705Z,99464.00
2023-02-24T06:14:17.980Z,99468.00
2023-02-24T06:16:45.438Z,99464.00
2023-02-24T06:19:13.472Z,99464.00
2023-02-24T06:21:42.070Z,99452.00
2023-02-24T06:24:13.779Z,99466.00
2023-02-24T06:26:42.635Z,99459.00
2023-02-24T06:29:14.439Z,99464.00
2023-02-24T06:31:42.072Z,99456.00
2023-02-24T06:34:09.868Z,99463.00
2023-02-24T06:36:37.369Z,99461.00
2023-02-24T06:39:07.394Z,99458.00
2023-02-24T06:41:34.848Z,99465.00
2023-02-24T06:44:02.166Z,99466.00
2023-02-24T06:46:30.490Z,99472.00
2023-02-24T06:48:57.882Z,99476.00
2023-02-24T06:51:29.352Z,99462.00
2023-02-24T06:53:58.630Z,99467.00
2023-02-24T06:56:26.484Z,99468.00
2023-02-24T06:58:55.604Z,99473.00
2023-02-24T07:01:25.444Z,99465.00
2023-02-24T07:04:13.797Z,99457.00
2023-02-24T07:06:43.110Z,99450.00
2023-02-24T07:09:13.229Z,99451.00
2023-02-24T07:11:44.094Z,99465.00
2023-02-24T07:14:13.766Z,99453.00
2023-02-24T07:16:44.511Z,99452.00
2023-02-24T07:19:14.238Z,99455.00
2023-02-24T07:21:45.939Z,99452.00
2023-02-24T07:24:19.622Z,99455.00
2023-02-24T07:26:51.057Z,99447.00
2023-02-24T07:29:18.357Z,99441.00
2023-02-24T07:31:48.127Z,99435.00
2023-02-24T07:34:22.797Z,99429.00
2023-02-24T07:36:50.788Z,99425.00
2023-02-24T07:39:18.976Z,99421.00
2023-02-24T07:41:48.681Z,99420.00
2023-02-24T07:44:17.957Z,99413.00
2023-02-24T07:46:45.791Z,99413.00
2023-02-24T07:49:14.865Z,99411.00
2023-02-24T07:51:42.959Z,99422.00
2023-02-24T07:54:12.190Z,99403.00
2023-02-24T07:56:45.406Z,99404.00
2023-02-24T07:59:15.113Z,99400.00
2023-02-24T08:01:49.062Z,99399.00
2023-02-24T08:04:18.423Z,99394.00
2023-02-24T08:06:49.713Z,99390.00
2023-02-24T08:09:19.839Z,99394.00
2023-02-24T08:11:51.514Z,99392.00
2023-02-24T08:14:20.030Z,99378.00
2023-02-24T08:16:49.031Z,99379.00
2023-02-24T08:19:20.350Z,99383.00
2023-02-24T08:21:50.093Z,99382.00
2023-02-24T08:24:20.016Z,99378.00
2023-02-24T08:27:03.188Z,99379.00
2023-02-24T08:29:30.815Z,99377.00
2023-02-24T08:31:58.366Z,99371.00
2023-02-24T08:34:32.378Z,99367.00
2023-02-24T08:37:01.027Z,99363.00
2023-02-24T08:39:29.468Z,99361.00
2023-02-24T08:41:57.724Z,99354.00
2023-02-24T08:44:26.462Z,99349.00
2023-02-24T08:46:55.214Z,99347.00
2023-02-24T08:49:24.488Z,99339.00
2023-02-24T08:51:52.696Z,99335.00
2023-02-24T08:54:26.428Z,99337.00
2023-02-24T08:56:55.528Z,99327.00
2023-02-24T08:59:37.271Z,99328.00
2023-02-24T09:02:23.310Z,99309.00
2023-02-24T09:04:52.579Z,99319.00
2023-02-24T09:07:22.417Z,99307.00
2023-02-24T09:09:55.537Z,99306.00
2023-02-24T09:12:24.595Z,99297.00
2023-02-24T09:14:55.178Z,99292.00
2023-02-24T09:17:49.042Z,99284.00
2023-02-24T09:20:55.510Z,99289.00
2023-02-24T09:23:29.215Z,99276.00
2023-02-24T09:25:57.466Z,99279.00
2023-02-24T09:28:26.442Z,99277.00
2023-02-24T09:30:56.053Z,99273.00
2023-02-24T09:33:26.218Z,99274.00
2023-02-24T09:36:08.839Z,99272.00
2023-02-24T09:38:55.421Z,99270.00
2023-02-24T09:41:31.285Z,99268.00
2023-02-24T09:44:06.616Z,99261.00
2023-02-24T09:46:41.628Z,99252.00
2023-02-24T09:49:16.782Z,99250.00
2023-02-24T09:51:44.240Z,99248.00
2023-02-24T09:54:16.115Z,99240.00
2023-02-24T09:57:00.305Z,99238.00
2023-02-24T09:59:34.014Z,99230.00
2023-02-24T10:02:26.632Z,99217.00
2023-02-24T10:05:08.880Z,99217.00
2023-02-24T10:07:39.996Z,99213.00
2023-02-24T10:10:19.122Z,99214.00
2023-02-24T10:12:51.855Z,99202.00
2023-02-24T10:15:44.081Z,99197.00
2023-02-24T10:18:26.525Z,99200.00
2023-02-24T10:20:58.800Z,99200.00
2023-02-24T10:23:36.235Z,99189.00
2023-02-24T10:26:21.222Z,99186.00
2023-02-24T10:28:58.647Z,99179.00
2023-02-24T10:31:34.815Z,99174.00
2023-02-24T10:34:05.541Z,99183.00
2023-02-24T10:36:34.827Z,99172.00
2023-02-24T10:39:09.384Z,99167.00
2023-02-24T10:41:45.366Z,99163.00
2023-02-24T10:44:19.622Z,99164.00
2023-02-24T10:46:47.559Z,99154.00
2023-02-24T10:49:24.064Z,99147.00
2023-02-24T10:51:52.884Z,99142.00
2023-02-24T10:54:33.641Z,99131.00
2023-02-24T10:57:07.777Z,99129.00
2023-02-24T11:00:13.361Z,99116.00
2023-02-24T11:03:08.783Z,99109.00
2023-02-24T11:05:43.537Z,99100.00
2023-02-24T11:08:35.814Z,99090.00
2023-02-24T11:11:19.355Z,99094.00
2023-02-24T11:14:10.074Z,99076.00
2023-02-24T11:17:14.063Z,99070.00
2023-02-24T11:19:44.533Z,99071.00
2023-02-24T11:22:17.219Z,99059.00
2023-02-24T11:24:45.508Z,99064.00
2023-02-24T11:27:16.066Z,99056.00
2023-02-24T11:29:58.408Z,99044.00
2023-02-24T11:32:58.021Z,99047.00
2023-02-24T11:35:31.044Z,99036.00
2023-02-24T11:38:07.327Z,99026.00
2023-02-24T11:40:41.205Z,99013.00
2023-02-24T11:43:13.758Z,99012.00
2023-02-24T11:45:45.876Z,99010.00
2023-02-24T11:48:18.897Z,99007.00
2023-02-24T11:50:50.366Z,99005.00
2023-02-24T11:53:29.850Z,99010.00
2023-02-24T11:56:02.048Z,98997.00
2023-02-24T11:58:35.576Z,98990.00
2023-02-24T12:01:10.330Z,98986.00
2023-02-24T12:03:47.193Z,98982.00
2023-02-24T12:06:20.879Z,98968.00
2023-02-24T12:08:53.638Z,98970.00
2023-02-24T12:11:33.114Z,98960.00
2023-02-24T12:14:12.415Z,98957.00
2023-02-24T12:16:47.216Z,98951.00
2023-02-24T12:19:19.798Z,98948.00
2023-02-24T12:21:51.953Z,98949.00
2023-02-24T12:24:20.654Z,98936.00
2023-02-24T12:27:00.572Z,98934.00
2023-02-24T12:29:47.897Z,98921.00
2023-02-24T12:32:26.606Z,98917.00
2023-02-24T12:35:06.762Z,98917.00
2023-02-24T12:37:48.141Z,98914.00
2023-02-24T12:40:25.594Z,98901.00
2023-02-24T12:43:03.052Z,98892.00
2023-02-24T12:45:40.385Z,98894.00
2023-02-24T12:48:19.248Z,98886.00
2023-02-24T12:50:51.480Z,98882.00
2023-02-24T12:53:23.477Z,98869.00
2023-02-24T12:56:01.880Z,98874.00
2023-02-24T12:58:33.681Z,98874.00
2023-02-24T13:01:11.466Z,98864.00
2023-02-24T13:03:52.476Z,98855.00
2023-02-24T13:06:32.861Z,98853.00
2023-02-24T13:09:11.501Z,98846.00
2023-02-24T13:11:42.887Z,98837.00
2023-02-24T13:14:20.427Z,98837.00
2023-02-24T13:16:47.832Z,98831.00
2023-02-24T13:19:21.686Z,98836.00
2023-02-24T13:22:01.260Z,98829.00
2023-02-24T13:24:28.826Z,98827.00
2023-02-24T13:27:06.186Z,98828.00
2023-02-24T13:29:43.986Z,98808.00
2023-02-24T13:32:29.556Z,98807.00
2023-02-24T13:34:59.130Z,98808.00
2023-02-24T13:37:33.935Z,98805.00
2023-02-24T13:40:12.323Z,98803.00
2023-02-24T13:42:40.094Z,98796.00
2023-02-24T13:45:19.633Z,98801.00
2023-02-24T13:48:25.003Z,98791.00
2023-02-24T13:51:09.698Z,98783.00
2023-02-24T13:54:02.432Z,98787.00
2023-02-24T13:56:38.238Z,98782.00
2023-02-24T13:59:38.421Z,98775.00
2023-02-24T14:02:14.177Z,98778.00
2023-02-24T14:04:47.994Z,98775.00
2023-02-24T14:07:20.182Z,98769.00
2023-02-24T14:09:51.812Z,98768.00
2023-02-24T14:12:21.013Z,98772.00
2023-02-24T14:14:49.104Z,98766.00
2023-02-24T14:17:23.739Z,98772.00
2023-02-24T14:19:51.058Z,98766.00
2023-02-24T14:22:20.490Z,98769.00
2023-02-24T14:24:48.745Z,98761.00
2023-02-24T14:27:24.063Z,98764.00
2023-02-24T14:29:52.748Z,98744.00
2023-02-24T14:32:21.996Z,98744.00
2023-02-24T14:34:50.315Z,98743.00
2023-02-24T14:37:21.566Z,98735.00
2023-02-24T14:39:54.391Z,98726.00
2023-02-24T14:42:22.393Z,98725.00
2023-02-24T14:44:51.380Z,98721.00
2023-02-24T14:47:20.431Z,98716.00
2023-02-24T14:49:59.118Z,98715.00
2023-02-24T14:52:35.489Z,98713.00
2023-02-24T14:55:07.476Z,98714.00
2023-02-24T14:57:39.896Z,98713.00
2023-02-24T15:00:16.710Z,98711.00
2023-02-24T15:02:50.101Z,98702.00
2023-02-24T15:05:17.783Z,98707.00
2023-02-24T15:07:45.929Z,98706.00
2023-02-24T15:10:21.205Z,98714.00
2023-02-24T15:12:51.473Z,98701.00
2023-02-24T15:15:21.474Z,98719.00
2023-02-24T15:17:51.459Z,98707.00
2023-02-24T15:20:30.534Z,98707.00
2023-02-24T15:22:58.522Z,98696.00
2023-02-24T15:25:41.937Z,98703.00
2023-02-24T15:28:23.662Z,98703.00
2023-02-24T15:31:03.120Z,98697.00
2023-02-24T15:33:35.438Z,98699.00
2023-02-24T15:36:09.595Z,98683.00
2023-02-24T15:38:39.247Z,98686.00
2023-02-24T15:41:08.523Z,98682.00
2023-02-24T15:43:37.937Z,98675.00
2023-02-24T15:46:16.197Z,98672.00
2023-02-24T15:48:45.093Z,98679.00
2023-02-24T15:51:21.264Z,98675.00
2023-02-24T15:53:48.755Z,98671.00
2023-02-24T15:56:16.938Z,98672.00
2023-02-24T15:58:44.228Z,98668.00
2023-02-24T16:01:12.291Z,98667.00
2023-02-24T16:03:39.871Z,98658.00
2023-02-24T16:06:12.540Z,98664.00
2023-02-24T16:08:43.998Z,98647.00
2023-02-24T16:11:12.290Z,98637.00
2023-02-24T16:13:43.266Z,98636.00
2023-02-24T16:16:13.139Z,98646.00
2023-02-24T16:18:40.586Z,98632.00
2023-02-24T16:21:07.971Z,98633.00
2023-02-24T16:23:39.907Z,98636.00
2023-02-24T16:26:13.199Z,98637.00
2023-02-24T16:28:41.783Z,98647.00
2023-02-24T16:31:09.318Z,98638.00
2023-02-24T16:33:51.768Z,98638.00
2023-02-24T16:36:22.196Z,98643.00
2023-02-24T16:38:50.906Z,98643.00
2023-02-24T16:41:18.233Z,98638.00
2023-02-24T16:43:46.244Z,98632.00
2023-02-24T16:46:16.489Z,98645.00
2023-02-24T16:48:46.053Z,98642.00
2023-02-24T16:51:13.695Z,98633.00
2023-02-24T16:53:41.029Z,98630.00
2023-02-24T16:56:09.072Z,98623.00
2023-02-24T16:58:36.456Z,98628.00
2023-02-24T17:01:05.600Z,98616.00
2023-02-24T17:03:44.603Z,98631.00
2023-02-24T17:06:12.026Z,98620.00
2023-02-24T17:08:40.877Z,98615.00
2023-02-24T17:11:11.978Z,98615.00
2023-02-24T17:13:39.428Z,98616.00
2023-02-24T17:16:07.616Z,98616.00
2023-02-24T17:18:34.923Z,98612.00
2023-02-24T17:21:03.013Z,98618.00
2023-02-24T17:23:31.533Z,98605.00
2023-02-24T17:26:01.460Z,98605.00
2023-02-24T17:28:29.239Z,98608.00
2023-02-24T17:30:56.979Z,98612.00
2023-02-24T17:33:25.020Z,98602.00
2023-02-24T17:35:52.287Z,98599.00
2023-02-24T17:38:23.427Z,98593.00
2023-02-24T17:40:50.654Z,98595.00
2023-02-24T17:43:18.214Z,98591.00
2023-02-24T17:45:46.804Z,98580.00
2023-02-24T17:48:15.124Z,98589.00
2023-02-24T17:50:43.941Z,98578.00
2023-02-24T17:53:16.352Z,98586.00
2023-02-24T17:56:01.027Z,98577.00
2023-02-24T17:58:29.652Z,98579.00
2023-02-24T18:00:57.006Z,98568.00
2023-02-24T18:03:24.516Z,98571.00
2023-02-24T18:05:59.771Z,98574.00
2023-02-24T18:08:27.116Z,98570.00
2023-02-24T18:10:54.399Z,98564.00
2023-02-24T18:13:21.657Z,98563.00
2023-02-24T18:15:49.095Z,98558.00
2023-02-24T18:18:16.436Z,98553.00
2023-02-24T18:20:43.982Z,98552.00
2023-02-24T18:23:12.222Z,98556.00
2023-02-24T18:25:39.606Z,98558.00
2023-02-24T18:28:07.337Z,98555.00
2023-02-24T18:30:34.634Z,98558.00
2023-02-24T18:33:02.157Z,98550.00
2023-02-24T18:35:30.401Z,98548.00
2023-02-24T18:37:57.687Z,98547.00
2023-02-24T18:40:27.266Z,98544.00
2023-02-24T18:42:54.949Z,98529.00
2023-02-24T18:45:23.049Z,98537.00
2023-02-24T18:47:51.796Z,98530.00
2023-02-24T18:50:19.970Z,98530.00
2023-02-24T18:52:47.220Z,98527.00
2023-02-24T18:55:14.658Z,98527.00
2023-02-24T18:57:42.627Z,98521.00
2023-02-24T19:00:13.965Z,98525.00
2023-02-24T19:02:41.394Z,98521.00
2023-02-24T19:05:09.794Z,98515.00
2023-02-24T19:07:37.051Z,98514.00
2023-02-24T19:10:05.189Z,98514.00
2023-02-24T19:12:32.469Z,98514.00
2023-02-24T19:15:00.470Z,98509.00
2023-02-24T19:17:27.731Z,98506.00
2023-02-24T19:19:55.089Z,98513.00
2023-02-24T19:22:22.384Z,98516.00
2023-02-24T19:24:49.693Z,98513.00
2023-02-24T19:27:16.948Z,98502.00
2023-02-24T19:29:44.317Z,98493.00
2023-02-24T19:32:12.424Z,98503.00
2023-02-24T19:34:39.824Z,98496.00
2023-02-24T19:37:07.109Z,98494.00
2023-02-24T19:39:34.376Z,98473.00
2023-02-24T19:42:01.747Z,98478.00
2023-02-24T19:44:29.025Z,98467.00
2023-02-24T19:46:56.324Z,98459.00
2023-02-24T19:49:24.444Z,98470.00
2023-02-24T19:51:54.048Z,98463.00
2023-02-24T19:54:22.028Z,98453.00
2023-02-24T19:56:50.334Z,98458.00
2023-02-24T19:59:18.151Z,98460.00
2023-02-24T20:01:45.893Z,98457.00
2023-02-24T20:04:13.123Z,98449.00
2023-02-24T20:06:42.952Z,98448.00
2023-02-24T20:09:14.667Z,98441.00
2023-02-24T20:11:43.613Z,98439.00
2023-02-24T20:14:12.262Z,98448.00
2023-02-24T20:16:41.329Z,98442.00
2023-02-24T20:19:10.750Z,98438.00
2023-02-24T20:21:39.109Z,98435.00
2023-02-24T20:24:09.247Z,98438.00
2023-02-24T20:26:37.434Z,98438.00
2023-02-24T20:29:04.767Z,98429.00
2023-02-24T20:31:32.162Z,98431.00
2023-02-24T20:33:59.670Z,98434.00
2023-02-24T20:36:28.289Z,98434.00
2023-02-24T20:38:57.558Z,98436.00
2023-02-24T20:41:26.493Z,98435.00
2023-02-24T20:43:54.529Z,98433.00
2023-02-24T20:46:25.227Z,98424.00
2023-02-24T20:48:55.708Z,98421.00
2023-02-24T20:51:23.403Z,98422.00
2023-02-24T20:53:57.349Z,98429.00
2023-02-24T20:56:27.102Z,98419.00
2023-02-24T20:58:59.216Z,98409.00
2023-02-24T21:01:29.982Z,98407.00
2023-02-24T21:03:57.751Z,98411.00
2023-02-24T21:06:29.022Z,98414.00
2023-02-24T21:08:56.545Z,98411.00
2023-02-24T21:11:25.152Z,98413.00
2023-02-24T21:13:56.665Z,98409.00
2023-02-24T21:16:31.543Z,98416.00
2023-02-24T21:19:04.358Z,98407.00
2023-02-24T21:21:34.723Z,98400.00
2023-02-24T21:24:01.979Z,98402.00
2023-02-24T21:26:29.968Z,98406.00
2023-02-24T21:28:58.630Z,98391.00
2023-02-24T21:31:29.523Z,98386.00
2023-02-24T21:33:57.038Z,98382.00
2023-02-24T21:36:30.001Z,98381.00
2023-02-24T21:39:01.318Z,98385.00
2023-02-24T21:41:34.764Z,98382.00
2023-02-24T21:44:05.951Z,98380.00
2023-02-24T21:46:36.149Z,98367.00
2023-02-24T21:49:05.802Z,98368.00
2023-02-24T21:51:33.066Z,98367.00
2023-02-24T21:54:07.941Z,98367.00
2023-02-24T21:56:36.163Z,98353.00
2023-02-24T21:59:11.402Z,98359.00
2023-02-24T22:01:43.070Z,98357.00
2023-02-24T22:04:25.282Z,98346.00
2023-02-24T22:06:52.540Z,98346.00
2023-02-24T22:09:20.240Z,98347.00
2023-02-24T22:11:49.389Z,98343.00
2023-02-24T22:14:17.016Z,98336.00
2023-02-24T22:16:44.719Z,98345.00
2023-02-24T22:19:12.354Z,98342.00
2023-02-24T22:21:41.692Z,98335.00
2023-02-24T22:24:16.700Z,98343.00
2023-02-24T22:26:47.547Z,98338.00
2023-02-24T22:29:15.481Z,98331.00
2023-02-24T22:31:49.383Z,98329.00
2023-02-24T22:34:19.980Z,98333.00
2023-02-24T22:36:47.294Z,98343.00
2023-02-24T22:39:16.237Z,98337.00
2023-02-24T22:41:54.299Z,98332.00
2023-02-24T22:44:25.304Z,98337.00
2023-02-24T22:46:57.338Z,98335.00
2023-02-24T22:49:34.483Z,98332.00
2023-02-24T22:52:04.117Z,98330.00
2023-02-24T22:54:38.642Z,98332.00
2023-02-24T22:57:05.911Z,98322.00
2023-02-24T22:59:39.486Z,98311.00
2023-02-24T23:02:08.744Z,98310.00
2023-02-24T23:04:36.310Z,98326.00
2023-02-24T23:07:03.930Z,98314.00
2023-02-24T23:09:45.891Z,98314.00
2023-02-24T23:12:35.056Z,98318.00
2023-02-24T23:15:03.288Z,98314.00
2023-02-24T23:17:30.543Z,98318.00
2023-02-24T23:20:01.143Z,98329.00
2023-02-24T23:22:28.373Z,98324.00
2023-02-24T23:25:12.316Z,98327.00
2023-02-24T23:27:40.257Z,98333.00
2023-02-24T23:30:11.819Z,98326.00
2023-02-24T23:32:43.166Z,98336.00
2023-02-24T23:35:11.162Z,98331.00
2023-02-24T23:37:41.592Z,98329.00
2023-02-24T23:40:10.790Z,98335.00
2023-02-24T23:42:38.120Z,98323.00
2023-02-24T23:45:13.525Z,98335.00
2023-02-24T23:47:40.807Z,98319.00
2023-02-24T23:50:12.882Z,98331.00
2023-02-24T23:52:43.479Z,98328.00
2023-02-24T23:55:17.940Z,98323.00
2023-02-24T23:57:45.338Z,98326.00
